Time;durP1;ratioP1;P1;durP2;ratioP2;P2;SDS_P1;SDS_P2;PMS_P1;PMS_P2;Temp;Humidity;BMP_temperature;BMP_pressure;BME280_temperature;BME280_humidity;BME280_pressure;Samples;Min_cycle;Max_cycle;Signal;HPM_P1;HPM_P2
2024/04/01 00:00:12;;;;;;;21.55;3.97;;;;;;;22.27;44.99;97242.91;5086363;28;20027;-74
2024/04/01 00:09:30;;;;;;;19.67;3.72;;;;;;;22.40;44.03;97239.63;5077236;28;20193;-74
2024/04/01 00:12:33;;;;;;;21.77;3.27;;;;;;;22.53;43.44;97243.50;5081308;28;20039;-73
2024/04/01 00:15:19;;;;;;;;;;;;;;;;;;;;;
2024/04/01 00:17:51;;;;;;;24.80;3.58;;;;;;;22.39;43.81;97235.22;5076356;28;20032;-74
2024/04/01 00:20:56;;;;;;;38.13;4.10;;;;;;;22.36;43.75;97243.75;5081595;28;20028;-73
2024/04/01 00:23:43;;;;;;;;;;;;;;;;;;;;;
2024/04/01 00:26:39;;;;;;;;;;;;;;;;;;;;;
2024/04/01 00:29:47;;;;;;;15.68;2.67;;;;;;;22.44;43.16;97238.25;5083441;28;20028;-73
2024/04/01 00:32:28;;;;;;;16.98;3.40;;;;;;;22.49;42.78;97246.75;5076048;28;20058;-73
2024/04/01 00:35:09;;;;;;;31.77;3.72;;;;;;;22.39;42.93;97238.78;5064272;28;20046;-74
2024/04/01 00:38:09;;;;;;;27.50;4.70;;;;;;;22.50;42.42;97243.00;5079774;28;20055;-73
2024/04/01 00:41:28;;;;;;;30.88;4.18;;;;;;;22.64;42.49;97255.91;5088065;28;20027;-74
2024/04/01 00:47:22;;;;;;;20.25;3.85;;;;;;;22.55;42.97;97267.84;5052278;28;20053;-75
2024/04/01 00:49:47;;;;;;;20.92;3.70;;;;;;;22.40;43.33;97267.72;5078830;28;20063;-74
2024/04/01 00:52:38;;;;;;;29.85;4.05;;;;;;;22.29;43.26;97270.00;5079219;28;20484;-74
2024/04/01 00:58:31;;;;;;;30.90;4.40;;;;;;;22.11;43.42;97257.44;5075923;28;20047;-74
2024/04/01 01:01:14;;;;;;;16.40;3.35;;;;;;;22.11;43.09;97240.25;5077735;28;20090;-74
2024/04/01 01:04:03;;;;;;;37.85;4.10;;;;;;;22.12;42.31;97248.22;5081338;28;20558;-74
2024/04/01 01:07:01;;;;;;;;;;;;;;;;;;;;;
2024/04/01 01:09:52;;;;;;;30.90;3.55;;;;;;;21.89;43.58;97250.00;5076957;28;20498;-73
2024/04/01 01:12:51;;;;;;;38.85;4.63;;;;;;;21.87;43.13;97254.72;5045113;28;20136;-74
2024/04/01 01:15:53;;;;;;;31.10;4.28;;;;;;;21.87;43.41;97249.25;5032731;28;20401;-74
2024/04/01 01:19:08;;;;;;;24.13;4.57;;;;;;;21.89;44.20;97249.13;5075176;28;20035;-74
2024/04/01 01:21:48;;;;;;;24.80;3.58;;;;;;;21.80;44.41;97251.00;5077090;28;20028;-74
2024/04/01 01:24:23;;;;;;;25.27;3.95;;;;;;;21.73;44.51;97249.97;5054345;28;20055;-74
2024/04/01 01:36:04;;;;;;;35.67;4.20;;;;;;;21.62;44.25;97258.50;5068907;28;20068;-74
2024/04/01 01:39:05;;;;;;;;;;;;;;;;;;;;;
2024/04/01 01:41:51;;;;;;;26.70;3.88;;;;;;;21.55;44.23;97274.66;5080195;28;20034;-74
2024/04/01 01:44:48;;;;;;;22.33;3.95;;;;;;;21.09;47.87;97278.00;5081352;28;20544;-74
2024/04/01 01:47:33;;;;;;;18.95;2.97;;;;;;;20.36;50.52;97275.00;5078199;28;20043;-74
2024/04/01 01:50:46;;;;;;;;;;;;;;;;;;;;;
2024/04/01 01:53:23;;;;;;;26.10;3.50;;;;;;;19.36;56.64;97289.97;5074342;28;20454;-74
2024/04/01 01:55:59;;;;;;;26.48;3.85;;;;;;;19.07;60.24;97300.22;5083112;28;20504;-73
2024/04/01 01:58:44;;;;;;;23.15;4.47;;;;;;;18.87;62.20;97294.94;5076344;28;20102;-74
2024/04/01 02:01:33;;;;;;;;;;;;;;;;;;;;;
2024/04/01 02:04:42;;;;;;;22.77;4.05;;;;;;;18.53;67.18;97296.53;5072320;28;20032;-73
2024/04/01 02:07:32;;;;;;;25.35;4.22;;;;;;;18.36;69.83;97297.31;5057562;28;20120;-73
2024/04/01 02:10:07;;;;;;;37.70;4.55;;;;;;;18.14;71.88;97289.56;5082968;28;20044;-73
2024/04/01 02:12:56;;;;;;;24.67;3.83;;;;;;;18.06;73.21;97284.88;5082164;28;20027;-74
2024/04/01 02:15:50;;;;;;;26.38;3.85;;;;;;;18.02;74.08;97285.31;5083511;28;20051;-74
2024/04/01 02:18:48;;;;;;;19.83;3.63;;;;;;;17.97;71.71;97272.22;5074880;28;20085;-73
2024/04/01 02:22:25;;;;;;;39.03;5.18;;;;;;;17.90;74.65;97281.09;5074123;28;20112;-73
2024/04/01 02:25:27;;;;;;;28.08;3.80;;;;;;;17.74;76.01;97287.09;5065783;28;20521;-74
2024/04/01 02:28:01;;;;;;;29.00;4.60;;;;;;;17.57;79.40;97296.81;5042059;28;20040;-73
2024/04/01 02:30:44;;;;;;;27.77;5.00;;;;;;;17.46;80.00;97293.38;5068873;28;20456;-73
2024/04/01 02:33:54;;;;;;;35.35;4.28;;;;;;;17.26;83.93;97309.59;5071628;28;20480;-74
2024/04/01 02:36:35;;;;;;;;;;;;;;;;;;;;;
2024/04/01 02:39:35;;;;;;;34.88;4.35;;;;;;;17.07;87.23;97308.75;5077898;28;20024;-73
2024/04/01 02:42:49;;;;;;;37.38;5.18;;;;;;;16.97;88.39;97314.16;5076920;28;20032;-73
2024/04/01 02:45:32;;;;;;;27.35;3.90;;;;;;;16.92;89.35;97312.88;5078076;28;20059;-74
2024/04/01 02:48:35;;;;;;;29.90;4.68;;;;;;;16.95;89.34;97318.00;5068368;28;20145;-74
2024/04/01 02:51:47;;;;;;;24.20;4.13;;;;;;;16.85;90.28;97319.81;5076334;28;20029;-73
2024/04/01 02:54:40;;;;;;;23.60;5.28;;;;;;;16.76;92.55;97325.03;5074119;28;20041;-74
2024/04/01 02:57:27;;;;;;;33.17;4.32;;;;;;;16.70;92.87;97325.59;5091816;28;20035;-74
2024/04/01 03:00:32;;;;;;;;;;;;;;;;;;;;;
2024/04/01 03:03:37;;;;;;;37.05;4.10;;;;;;;16.66;93.11;97326.03;5052767;28;20045;-74
2024/04/01 03:06:45;;;;;;;43.45;6.15;;;;;;;16.57;92.86;97321.44;5031582;28;20044;-74
2024/04/01 03:09:37;;;;;;;29.13;5.40;;;;;;;16.50;93.77;97318.41;5065295;28;20052;-74
2024/04/01 03:12:53;;;;;;;;;;;;;;;;;;;;;
2024/04/01 03:16:04;;;;;;;;;;;;;;;;;;;;;
2024/04/01 03:19:04;;;;;;;38.35;4.60;;;;;;;16.40;95.85;97327.44;5058353;28;20040;-73
2024/04/01 03:21:34;;;;;;;50.72;9.05;;;;;;;16.26;97.47;97323.28;5063497;28;20048;-73
2024/04/01 03:24:18;;;;;;;;;;;;;;;;;;;;;
2024/04/01 03:27:20;;;;;;;32.40;5.80;;;;;;;16.21;95.07;97330.94;5068294;28;20044;-73
2024/04/01 03:33:17;;;;;;;;;;;;;;;;;;;;;
2024/04/01 03:36:20;;;;;;;42.83;5.03;;;;;;;15.91;100.00;97341.69;5082127;28;20033;-73
2024/04/01 03:39:18;;;;;;;26.20;4.28;;;;;;;15.76;100.00;97340.31;5086905;28;20097;-73
2024/04/01 03:42:34;;;;;;;;;;;;;;;;;;;;;
2024/04/01 03:45:39;;;;;;;40.90;4.97;;;;;;;15.37;100.00;97340.03;5035796;28;20048;-73
2024/04/01 03:48:35;;;;;;;28.13;4.68;;;;;;;15.31;100.00;97348.63;5032629;28;20460;-73
2024/04/01 03:51:48;;;;;;;45.83;6.40;;;;;;;15.16;100.00;97355.31;5042000;28;20427;-74
2024/04/01 03:58:00;;;;;;;35.17;7.10;;;;;;;15.04;100.00;97369.78;5033310;28;20033;-73
2024/04/01 04:01:19;;;;;;;;;;;;;;;;;;;;;
2024/04/01 04:04:49;;;;;;;33.55;8.52;;;;;;;15.02;100.00;97380.69;5070318;28;20037;-72
2024/04/01 04:07:51;;;;;;;37.60;7.57;;;;;;;15.04;100.00;97381.41;5056433;28;20465;-73
2024/04/01 04:10:57;;;;;;;42.83;7.45;;;;;;;15.08;100.00;97376.59;5039406;28;20029;-74
2024/04/01 04:13:43;;;;;;;55.00;7.15;;;;;;;15.10;100.00;97390.84;5065758;28;20039;-73
2024/04/01 04:16:51;;;;;;;29.75;5.55;;;;;;;15.07;100.00;97375.75;5085698;28;20561;-73
2024/04/01 04:19:25;;;;;;;46.60;7.18;;;;;;;14.86;100.00;97390.16;5076412;28;20106;-74
2024/04/01 04:22:08;;;;;;;56.25;7.38;;;;;;;14.91;100.00;97374.47;5085864;28;20024;-74
2024/04/01 04:24:44;;;;;;;29.98;6.28;;;;;;;14.76;100.00;97378.41;5091912;28;20039;-74
2024/04/01 04:27:41;;;;;;;35.05;4.85;;;;;;;14.79;100.00;97384.41;5069919;28;20066;-73
2024/04/01 04:33:47;;;;;;;38.42;7.15;;;;;;;14.72;100.00;97374.25;5087045;28;20146;-73
2024/04/01 04:36:35;;;;;;;;;;;;;;;14.84;100.00;97384.03;5081177;28;20483;-72
2024/04/01 04:39:47;;;;;;;69.18;11.90;;;;;;;14.80;100.00;97382.53;5068117;28;20484;-73
2024/04/01 04:45:58;;;;;;;;;;;;;;;;;;;;;
2024/04/01 04:48:52;;;;;;;62.67;14.88;;;;;;;15.27;100.00;97392.13;5080320;28;20484;-71
2024/04/01 04:51:31;;;;;;;44.35;7.68;;;;;;;15.43;100.00;97374.53;5088925;28;20051;-72
2024/04/01 04:54:13;;;;;;;41.97;8.43;;;;;;;15.66;100.00;97369.91;5088503;28;20479;-71
2024/04/01 04:57:01;;;;;;;;;;;;;;;;;;;;;
2024/04/01 04:59:53;;;;;;;41.97;9.52;;;;;;;16.16;100.00;97358.31;5067456;28;20028;-72
2024/04/01 05:02:34;;;;;;;58.75;7.85;;;;;;;16.45;100.00;97344.97;5078010;28;20562;-71
2024/04/01 05:05:32;;;;;;;46.40;7.47;;;;;;;16.67;97.02;97333.13;5071527;28;20046;-72
2024/04/01 05:08:41;;;;;;;42.13;6.40;;;;;;;17.00;93.05;97334.63;5088512;28;20032;-71
2024/04/01 05:11:41;;;;;;;54.17;14.45;;;;;;;17.09;100.00;97345.44;5074098;28;20055;-72
2024/04/01 05:14:32;;;;;;;61.03;11.20;;;;;;;16.99;98.76;97349.13;5045804;28;20381;-72
2024/04/01 05:17:21;;;;;;;47.78;9.38;;;;;;;16.50;100.00;97341.84;5045302;28;20033;-71
2024/04/01 05:20:18;;;;;;;50.40;7.57;;;;;;;15.98;100.00;97354.53;5045718;28;20106;-71
2024/04/01 05:23:39;;;;;;;36.97;6.97;;;;;;;16.00;100.00;97355.25;5028662;28;20076;-71
2024/04/01 05:26:32;;;;;;;;;;;;;;;;;;;;;
2024/04/01 05:29:11;;;;;;;44.28;7.00;;;;;;;16.76;99.78;97335.84;5045321;28;20428;-73
2024/04/01 05:32:09;;;;;;;41.85;6.60;;;;;;;17.29;93.99;97330.94;5033569;28;20029;-84
2024/04/01 05:34:51;;;;;;;45.47;6.82;;;;;;;17.80;91.56;97336.09;5033196;28;20059;-84
2024/04/01 05:37:41;;;;;;;52.20;7.10;;;;;;;18.03;86.16;97331.19;5033594;28;20102;-83
2024/04/01 05:40:48;;;;;;;42.35;5.25;;;;;;;18.56;82.30;97336.03;5037828;28;20325;-73
2024/04/01 05:43:46;;;;;;;47.28;10.63;;;;;;;19.04;77.31;97320.34;5059743;28;20538;-74
2024/04/01 05:46:36;;;;;;;29.30;5.95;;;;;;;19.05;75.54;97318.47;5073194;28;20025;-74
2024/04/01 05:50:17;;;;;;;37.38;6.45;;;;;;;19.32;73.73;97319.28;5074823;28;20062;-74
2024/04/01 05:52:43;;;;;;;51.55;8.70;;;;;;;20.25;66.69;97312.41;5060480;28;20100;-74
2024/04/01 05:55:32;;;;;;;31.73;6.13;;;;;;;21.28;60.95;97321.25;5085403;28;20032;-75
2024/04/01 05:58:21;;;;;;;41.05;5.47;;;;;;;21.91;57.62;97313.31;5084278;28;20027;-74
2024/04/01 06:01:09;;;;;;;36.63;6.47;;;;;;;22.70;54.61;97309.78;5087698;28;20023;-76
2024/04/01 06:04:00;;;;;;;37.40;7.10;;;;;;;23.06;52.52;97305.50;5081866;28;20051;-74
2024/04/01 06:06:46;;;;;;;53.38;8.38;;;;;;;23.02;50.91;97304.16;5074396;28;20032;-75
2024/04/01 06:10:01;;;;;;;33.78;5.70;;;;;;;23.71;48.68;97302.38;5074728;28;20025;-74
2024/04/01 06:12:34;;;;;;;38.28;8.45;;;;;;;24.48;46.81;97297.59;5077980;28;20023;-75
2024/04/01 06:15:56;;;;;;;33.22;6.30;;;;;;;24.94;45.13;97292.78;5074030;28;20055;-75
2024/04/01 06:18:52;;;;;;;;;;;;;;;;;;;;;
2024/04/01 06:21:34;;;;;;;32.05;5.05;;;;;;;25.91;42.35;97274.88;5078192;28;20399;-74
2024/04/01 06:24:12;;;;;;;33.80;5.93;;;;;;;26.38;41.83;97283.34;5083788;28;20104;-75
2024/04/01 06:26:49;;;;;;;31.88;6.80;;;;;;;26.24;41.78;97279.63;5074760;28;20052;-75
2024/04/01 06:30:00;;;;;;;38.85;6.15;;;;;;;25.85;42.68;97282.88;5063584;28;20117;-74
2024/04/01 06:33:15;;;;;;;47.00;6.10;;;;;;;26.33;41.47;97277.59;5072292;28;20113;-75
2024/04/01 06:35:48;;;;;;;44.42;13.52;;;;;;;26.86;40.52;97287.03;5062588;28;20043;-75
2024/04/01 06:38:54;;;;;;;53.00;7.07;;;;;;;26.94;40.43;97281.38;5083757;28;20027;-74
2024/04/01 06:41:47;;;;;;;42.33;5.50;;;;;;;27.11;39.08;97281.84;5058750;28;20140;-75
2024/04/01 06:44:46;;;;;;;;;;;;;;;;;;;;;
2024/04/01 06:47:21;;;;;;;42.55;8.23;;;;;;;28.94;37.81;97268.28;5042459;28;20475;-73
2024/04/01 06:50:19;;;;;;;45.80;6.93;;;;;;;29.62;36.14;97267.78;5068563;28;20088;-72
2024/04/01 06:59:56;;;;;;;42.00;7.55;;;;;;;31.19;36.86;97273.84;5068115;28;20036;-73
2024/04/01 07:02:46;;;;;;;34.70;8.65;;;;;;;31.76;33.81;97258.59;5068116;28;20033;-73
2024/04/01 07:05:38;;;;;;;48.92;7.43;;;;;;;32.74;35.61;97268.06;5068144;28;20044;-74
2024/04/01 07:08:11;;;;;;;;;;;;;;;32.90;32.95;97255.41;5068753;28;20823;-72
2024/04/01 07:11:11;;;;;;;54.90;7.13;;;;;;;32.93;31.00;97249.38;5052266;28;19920;-74
2024/04/01 07:21:06;;;;;;;41.63;6.18;;;;;;;31.63;34.09;97268.78;5069218;28;20036;-72
2024/04/01 07:24:06;;;;;;;;;;;;;;;;;;;;;
2024/04/01 07:26:40;;;;;;;30.80;4.72;;;;;;;31.26;32.74;97242.25;5082050;28;20510;-74
2024/04/01 07:32:10;;;;;;;30.88;4.75;;;;;;;31.83;31.66;97249.13;5079177;28;20039;-74
2024/04/01 07:34:59;;;;;;;;;;;;;;;;;;;;;
2024/04/01 07:37:52;;;;;;;38.47;5.75;;;;;;;32.83;29.81;97243.59;5079609;28;19930;-74
2024/04/01 07:41:11;;;;;;;37.90;5.60;;;;;;;32.30;30.34;97240.94;5087600;28;20036;-74
2024/04/01 07:44:04;;;;;;;41.50;6.13;;;;;;;32.98;29.47;97241.19;5080534;28;20028;-75
2024/04/01 07:46:56;;;;;;;52.78;7.30;;;;;;;32.31;28.51;97221.31;5086624;28;20544;-75
2024/04/01 07:49:33;;;;;;;83.40;27.83;;;;;;;33.48;26.66;97205.34;5080616;28;20128;-74
2024/04/01 07:52:36;;;;;;;43.58;8.82;;;;;;;33.75;26.38;97207.28;5080998;28;20478;-74
2024/04/01 07:55:31;;;;;;;;;;;;;;;;;;;;;
2024/04/01 08:02:08;;;;;;;39.47;5.22;;;;;;;32.26;24.26;97181.59;5066289;28;20025;-72
2024/04/01 08:08:09;;;;;;;36.70;4.95;;;;;;;32.12;24.02;97175.44;5068521;28;20097;-68
2024/04/01 08:10:59;;;;;;;34.80;5.55;;;;;;;32.70;23.74;97173.50;5069327;28;20566;-68
2024/04/01 08:13:53;;;;;;;39.40;5.75;;;;;;;32.52;23.77;97165.28;5068329;28;20497;-69
2024/04/01 08:16:54;;;;;;;61.40;6.82;;;;;;;33.18;23.24;97155.69;5073805;28;20537;-69
2024/04/01 08:20:08;;;;;;;53.80;6.68;;;;;;;33.89;23.39;97159.78;5089318;28;20633;-70
2024/04/01 08:22:58;;;;;;;42.40;6.40;;;;;;;34.74;21.74;97152.81;5081273;28;20044;-69
2024/04/01 08:25:37;;;;;;;31.15;5.50;;;;;;;35.36;21.47;97141.34;5068974;28;20511;-71
2024/04/01 08:28:06;;;;;;;57.92;6.80;;;;;;;35.66;22.56;97155.59;5069116;28;20035;-72
2024/04/01 08:31:07;;;;;;;45.60;6.22;;;;;;;34.11;23.18;97152.41;5068924;28;20029;-71
2024/04/01 08:34:01;;;;;;;;;;;;;;;;;;;;;
2024/04/01 08:36:36;;;;;;;41.42;6.32;;;;;;;36.14;20.92;97142.69;5069038;28;20032;-72
2024/04/01 08:39:12;;;;;;;45.03;6.15;;;;;;;37.05;21.08;97141.31;5068993;28;20506;-71
2024/04/01 08:42:31;;;;;;;43.88;5.63;;;;;;;37.25;19.57;97119.06;5067205;28;20031;-71
2024/04/01 08:45:23;;;;;;;49.40;7.10;;;;;;;35.48;20.66;97132.81;5071599;28;20102;-71
2024/04/01 08:47:59;;;;;;;;;;;;;;;35.69;22.58;97131.94;5070670;28;20029;-72
2024/04/01 08:51:06;;;;;;;44.45;6.80;;;;;;;35.84;22.53;97137.66;5070223;28;19913;-72
2024/04/01 08:54:28;;;;;;;48.33;7.70;;;;;;;36.95;19.79;97125.31;5069894;28;20070;-72
2024/04/01 09:00:32;;;;;;;51.08;6.47;;;;;;;34.97;20.01;97111.94;5070229;28;20036;-72
2024/04/01 09:03:09;;;;;;;52.53;7.07;;;;;;;33.49;20.90;97098.84;5070811;28;20048;-72
2024/04/01 09:05:56;;;;;;;44.03;6.95;;;;;;;32.82;21.45;97092.28;5071173;28;20028;-73
2024/04/01 09:08:57;;;;;;;54.65;10.15;;;;;;;32.57;22.27;97093.44;5069908;28;20557;-73
2024/04/01 09:11:51;;;;;;;50.75;6.82;;;;;;;32.24;22.24;97082.13;5052937;28;20035;-73
2024/04/01 09:14:27;;;;;;;34.55;6.68;;;;;;;32.13;22.05;97077.47;5067740;28;20028;-73
2024/04/01 09:17:24;;;;;;;52.53;7.20;;;;;;;32.97;21.91;97081.47;5070865;28;20082;-73
2024/04/01 09:23:20;;;;;;;46.58;7.43;;;;;;;36.50;20.11;97083.25;5059741;28;20189;-73
2024/04/01 09:26:30;;;;;;;53.20;7.47;;;;;;;37.61;19.03;97083.69;5070026;28;20569;-73
2024/04/01 09:29:03;;;;;;;74.88;7.78;;;;;;;37.80;19.11;97076.44;5070728;28;20050;-73
2024/04/01 09:32:05;;;;;;;57.35;7.05;;;;;;;37.92;18.89;97071.44;5069718;28;20031;-73
2024/04/01 09:35:06;;;;;;;;;;;;;;;;;;;;;
2024/04/01 09:38:03;;;;;;;;;;;;;;;;;;;;;
2024/04/01 09:40:54;;;;;;;52.45;9.73;;;;;;;36.86;18.72;97037.72;5065466;28;20582;-72
2024/04/01 09:46:32;;;;;;;60.78;7.43;;;;;;;35.49;19.60;97042.66;5070345;28;20036;-72
2024/04/01 09:49:18;;;;;;;52.83;8.68;;;;;;;34.76;20.87;97039.41;5070412;28;20048;-73
2024/04/01 09:52:07;;;;;;;49.15;7.78;;;;;;;35.36;20.89;97043.94;5070796;28;20028;-74
2024/04/01 09:54:41;;;;;;;51.65;8.10;;;;;;;36.98;18.96;97033.84;5082355;28;20055;-73
2024/04/01 10:01:09;;;;;;;;;;;;;;;;;;;;;
2024/04/01 10:07:25;;;;;;;61.38;8.27;;;;;;;37.15;18.62;97017.72;5090053;28;20434;-72
2024/04/01 10:10:41;;;;;;;51.15;8.88;;;;;;;36.29;19.10;97017.38;5090329;28;20136;-72
2024/04/01 10:13:46;;;;;;;59.30;8.60;;;;;;;36.62;18.69;97005.84;5090684;28;20054;-72
2024/04/01 10:17:02;;;;;;;54.83;8.50;;;;;;;36.89;19.30;97020.41;5079050;28;20117;-73
2024/04/01 10:20:07;;;;;;;56.20;8.75;;;;;;;36.79;18.31;97008.41;5028026;28;20433;-72
2024/04/01 10:26:33;;;;;;;57.38;8.70;;;;;;;38.05;18.29;97010.50;5019754;28;20417;-73
2024/04/01 10:29:36;;;;;;;;;;;;;;;;;;;;;
2024/04/01 10:32:34;;;;;;;63.67;10.25;;;;;;;38.11;17.63;97009.38;5028389;28;20033;-73
2024/04/01 10:35:38;;;;;;;77.70;9.85;;;;;;;37.11;17.01;96992.31;5011582;28;20499;-72
2024/04/01 10:38:53;;;;;;;;;;;;;;;;;;;;;
2024/04/01 10:42:12;;;;;;;74.72;10.05;;;;;;;36.98;17.25;96986.44;5070000;28;20012;-72
2024/04/01 10:45:48;;;;;;;63.08;10.25;;;;;;;37.53;17.98;97002.44;5069812;28;20039;-72
2024/04/01 10:52:25;;;;;;;61.92;8.77;;;;;;;36.55;17.27;96968.19;5013545;28;20091;-72
2024/04/01 10:58:28;;;;;;;66.75;9.93;;;;;;;36.30;17.48;96960.56;5013993;28;20037;-72
2024/04/01 11:01:33;;;;;;;68.18;9.90;;;;;;;36.74;17.53;96963.78;5012036;28;20063;-72
2024/04/01 11:04:47;;;;;;;70.95;9.07;;;;;;;36.95;17.11;96960.75;5027602;28;20040;-72
2024/04/01 11:07:36;;;;;;;71.35;10.77;;;;;;;37.28;16.81;96955.78;5050615;28;20032;-73
2024/04/01 11:10:40;;;;;;;65.72;10.68;;;;;;;37.27;16.70;96951.31;5049876;28;20029;-72
2024/04/01 11:13:41;;;;;;;;;;;;;;;;;;;;;
2024/04/01 11:16:35;;;;;;;;;;;;;;;35.80;16.71;96948.00;5052572;28;20435;-72
2024/04/01 11:19:32;;;;;;;69.88;10.32;;;;;;;35.62;17.32;96937.31;5053134;28;19920;-72
2024/04/01 11:22:25;;;;;;;77.10;12.35;;;;;;;35.72;17.65;96931.81;5052176;28;20066;-72
2024/04/01 11:25:33;;;;;;;65.00;10.98;;;;;;;35.83;17.26;96941.91;5051060;28;20049;-72
2024/04/01 11:28:42;;;;;;;66.15;9.90;;;;;;;36.22;17.25;96913.69;5053498;28;20048;-72
2024/04/01 11:31:29;;;;;;;59.75;10.20;;;;;;;35.38;17.18;96924.84;5053046;28;20025;-72
2024/04/01 11:38:20;;;;;;;;;;;;;;;;;;;;;
2024/04/01 11:41:01;;;;;;;83.22;12.00;;;;;;;35.90;17.61;96923.00;5053375;28;20025;-73
2024/04/01 11:43:42;;;;;;;;;;;;;;;;;;;;;
2024/04/01 11:46:39;;;;;;;;;;;;;;;37.11;16.81;96919.78;5052516;28;20028;-71
2024/04/01 11:49:28;;;;;;;;;;;;;;;;;;;;;
2024/04/01 11:52:20;;;;;;;74.32;11.73;;;;;;;38.69;16.34;96909.88;5072542;28;20036;-72
2024/04/01 11:55:25;;;;;;;71.05;10.40;;;;;;;38.04;16.20;96883.91;5072633;28;20436;-71
2024/04/01 11:57:56;;;;;;;80.18;11.43;;;;;;;39.52;16.12;96888.25;5070720;28;20047;-71
2024/04/01 12:03:38;;;;;;;77.63;10.38;;;;;;;39.14;16.54;96891.94;5072766;28;20020;-72
2024/04/01 12:06:25;;;;;;;81.28;10.93;;;;;;;39.36;15.92;96869.91;5072703;28;20477;-71
2024/04/01 12:08:51;;;;;;;58.53;9.68;;;;;;;39.60;16.23;96876.38;5072405;28;20081;-70
2024/04/01 12:11:42;;;;;;;77.75;11.85;;;;;;;39.00;15.95;96867.44;5071326;28;20472;-71
2024/04/01 12:14:16;;;;;;;62.30;9.75;;;;;;;38.55;16.53;96867.72;5071665;28;20036;-71
2024/04/01 12:17:10;;;;;;;59.97;10.15;;;;;;;38.03;16.21;96851.50;5091248;28;20036;-71
2024/04/01 12:19:59;;;;;;;;;;;;;;;;;;;;;
2024/04/01 12:22:41;;;;;;;;;;;;;;;;;;;;;
2024/04/01 12:25:57;;;;;;;;;;;;;;;;;;;;;
2024/04/01 12:28:59;;;;;;;;;;;;;;;;;;;;;
2024/04/01 12:32:08;;;;;;;58.78;9.88;;;;;;;38.20;16.40;96845.56;5070919;28;20039;-73
2024/04/01 12:35:11;;;;;;;65.25;10.05;;;;;;;38.74;17.12;96846.31;5072194;28;20513;-73
2024/04/01 12:38:15;;;;;;;;;;;;;;;;;;;;;
2024/04/01 12:41:24;;;;;;;62.15;9.90;;;;;;;39.23;16.22;96837.00;5070872;28;20440;-72
2024/04/01 12:44:13;;;;;;;;;;;;;;;;;;;;;
2024/04/01 12:47:11;;;;;;;70.13;12.75;;;;;;;38.72;16.57;96840.19;5071670;28;20055;-73
2024/04/01 12:50:12;;;;;;;70.60;10.20;;;;;;;38.37;16.59;96820.88;5055416;28;20602;-75
2024/04/01 12:53:01;;;;;;;66.05;9.25;;;;;;;37.18;17.14;96810.66;5012809;28;20072;-71
2024/04/01 12:59:19;;;;;;;77.70;10.57;;;;;;;35.96;17.94;96794.91;5064008;28;20032;-71
2024/04/01 13:05:58;;;;;;;60.95;9.13;;;;;;;34.90;18.00;96811.84;5091522;28;20047;-70
2024/04/01 13:08:31;;;;;;;65.32;9.98;;;;;;;35.06;18.50;96782.19;5091546;28;20047;-70
2024/04/01 13:11:45;;;;;;;52.60;8.32;;;;;;;35.66;18.13;96785.34;5089282;28;20055;-72
2024/04/01 13:14:15;;;;;;;80.22;9.80;;;;;;;36.83;17.78;96790.03;5089972;28;20498;-70
2024/04/01 13:17:17;;;;;;;52.90;9.05;;;;;;;37.16;17.64;96804.56;5066961;28;20040;-71
2024/04/01 13:20:34;;;;;;;51.33;8.85;;;;;;;35.46;17.70;96776.88;5067832;28;20024;-71
2024/04/01 13:23:50;;;;;;;;;;;;;;;;;;;;;
2024/04/01 13:27:21;;;;;;;64.60;8.38;;;;;;;34.44;18.22;96754.19;5066938;28;20020;-71
2024/04/01 13:33:17;;;;;;;;;;;;;;;;;;;;;
2024/04/01 13:36:01;;;;;;;60.72;9.00;;;;;;;33.82;19.13;96745.50;5068169;28;20046;-70
2024/04/01 13:39:22;;;;;;;58.42;8.88;;;;;;;34.20;19.09;96742.59;5067201;28;20036;-70
2024/04/01 13:42:24;;;;;;;45.40;8.02;;;;;;;34.55;19.14;96726.22;5063897;28;20040;-71
2024/04/01 13:45:13;;;;;;;;;;;;;;;34.13;19.35;96725.31;5068168;28;20060;-71
2024/04/01 13:48:23;;;;;;;54.88;8.93;;;;;;;33.69;19.41;96724.56;5067640;28;19916;-73
2024/04/01 13:52:05;;;;;;;;;;;;;;;;;;;;;
2024/04/01 13:55:13;;;;;;;54.85;8.20;;;;;;;33.04;19.91;96727.31;5062499;28;20416;-71
2024/04/01 13:58:30;;;;;;;;;;;;;;;;;;;;;
2024/04/01 14:01:50;;;;;;;65.15;8.25;;;;;;;32.34;20.00;96724.28;5025669;28;20424;-71
2024/04/01 14:05:03;;;;;;;69.70;9.93;;;;;;;32.53;20.32;96718.25;4977037;28;20188;-71
2024/04/01 14:08:15;;;;;;;59.63;14.88;;;;;;;32.80;19.80;96689.81;5067696;28;20484;-71
2024/04/01 14:11:21;;;;;;;81.95;9.52;;;;;;;32.85;19.83;96706.53;5024982;28;20493;-72
2024/04/01 14:17:06;;;;;;;;;;;;;;;;;;;;;
2024/04/01 14:20:17;;;;;;;;;;;;;;;;;;;;;
2024/04/01 14:23:35;;;;;;;65.78;8.93;;;;;;;33.83;19.47;96675.03;4998972;28;20124;-72
2024/04/01 14:26:50;;;;;;;49.55;7.20;;;;;;;34.01;19.41;96674.63;5053250;28;20131;-71
2024/04/01 14:29:39;;;;;;;55.72;8.95;;;;;;;33.68;19.61;96671.00;5066510;28;20073;-71
2024/04/01 14:32:31;;;;;;;52.42;8.25;;;;;;;33.63;19.71;96665.41;5067163;28;20039;-71
2024/04/01 14:35:13;;;;;;;60.03;7.60;;;;;;;33.37;19.62;96657.03;5065943;28;20471;-70
2024/04/01 14:38:03;;;;;;;;;;;;;;;33.02;20.02;96654.66;5067966;28;20086;-72
2024/04/01 14:45:19;;;;;;;55.20;9.00;;;;;;;32.96;19.99;96664.84;5059079;28;20040;-72
2024/04/01 14:48:01;;;;;;;;;;;;;;;;;;;;;
2024/04/01 14:51:02;;;;;;;;;;;;;;;;;;;;;
2024/04/01 14:54:00;;;;;;;46.72;9.02;;;;;;;32.29;20.33;96664.13;5070429;28;20282;-73
2024/04/01 14:56:47;;;;;;;53.67;7.25;;;;;;;32.08;20.52;96651.91;5069837;28;20115;-74
2024/04/01 14:59:34;;;;;;;56.20;7.78;;;;;;;31.88;20.48;96659.00;5069916;28;20067;-71
2024/04/01 15:02:16;;;;;;;56.55;8.93;;;;;;;31.38;21.03;96665.25;5069138;28;20045;-76
2024/04/01 15:04:48;;;;;;;50.45;7.93;;;;;;;31.16;20.95;96661.53;5072871;28;20395;-74
2024/04/01 15:11:11;;;;;;;53.08;7.07;;;;;;;30.88;21.24;96653.16;5082995;28;20059;-79
2024/04/01 15:17:04;;;;;;;54.70;8.55;;;;;;;30.51;21.27;96650.72;5078056;28;20421;-79
2024/04/01 15:19:52;;;;;;;;;;;;;;;;;;;;;
2024/04/01 15:22:54;;;;;;;47.35;7.97;;;;;;;30.63;21.96;96640.50;5069732;28;20040;-71
2024/04/01 15:25:38;;;;;;;43.22;7.22;;;;;;;30.76;21.00;96633.03;5077088;28;20138;-71
2024/04/01 15:28:39;;;;;;;58.67;15.60;;;;;;;30.82;21.22;96637.56;5089616;28;20353;-70
2024/04/01 15:34:23;;;;;;;60.20;7.43;;;;;;;30.89;20.95;96639.09;5067271;28;20075;-70
2024/04/01 15:37:34;;;;;;;48.40;7.03;;;;;;;30.95;21.05;96648.34;5077499;28;20058;-71
2024/04/01 15:40:55;;;;;;;47.22;8.20;;;;;;;30.86;21.42;96655.31;5068668;28;20090;-71
2024/04/01 15:43:44;;;;;;;43.70;6.80;;;;;;;30.72;21.37;96637.34;5053442;28;20514;-71
2024/04/01 15:46:49;;;;;;;;;;;;;;;;;;;;;
2024/04/01 15:49:42;;;;;;;41.05;6.15;;;;;;;30.57;21.62;96630.44;5066433;28;20153;-71
2024/04/01 15:52:42;;;;;;;53.67;9.00;;;;;;;30.59;22.29;96639.28;5069782;28;20032;-71
2024/04/01 15:55:26;;;;;;;72.35;8.75;;;;;;;30.59;21.82;96635.69;5068781;28;20037;-74
2024/04/01 15:57:59;;;;;;;48.70;7.03;;;;;;;30.60;21.78;96638.22;5086036;28;20427;-70
2024/04/01 16:00:35;;;;;;;;;;;;;;;;;;;;;
2024/04/01 16:06:13;;;;;;;49.00;6.70;;;;;;;30.24;21.59;96629.34;5078268;28;20568;-71
2024/04/01 16:09:16;;;;;;;40.35;7.38;;;;;;;30.05;22.13;96631.41;5069907;28;20508;-71
2024/04/01 16:12:16;;;;;;;42.60;6.82;;;;;;;29.99;22.36;96637.88;5069697;28;20047;-71
2024/04/01 16:18:36;;;;;;;73.47;10.65;;;;;;;29.66;23.48;96632.03;5088851;28;20028;-70
2024/04/01 16:21:19;;;;;;;49.42;7.50;;;;;;;29.45;23.55;96645.28;5088353;28;20501;-71
2024/04/01 16:24:21;;;;;;;;;;;;;;;;;;;;;
2024/04/01 16:27:34;;;;;;;45.75;7.03;;;;;;;29.07;25.20;96660.47;5088554;28;20036;-71
2024/04/01 16:30:36;;;;;;;48.53;9.13;;;;;;;28.87;25.77;96649.69;5056524;28;20048;-70
2024/04/01 16:33:42;;;;;;;51.85;6.57;;;;;;;28.79;26.77;96652.78;5084223;28;20073;-71
2024/04/01 16:36:47;;;;;;;59.40;7.85;;;;;;;28.69;27.08;96669.00;5089468;28;20035;-72
2024/04/01 16:39:24;;;;;;;54.88;7.43;;;;;;;28.70;27.16;96659.69;5068185;28;20055;-71
2024/04/01 16:42:22;;;;;;;64.47;8.50;;;;;;;28.59;27.76;96668.66;5088143;28;20424;-72
2024/04/01 16:45:10;;;;;;;41.65;7.30;;;;;;;28.34;28.07;96665.97;5089294;28;20039;-71
2024/04/01 16:47:51;;;;;;;37.10;6.90;;;;;;;28.21;28.78;96664.19;5076176;28;20115;-72
2024/04/01 16:50:47;;;;;;;;;;;;;;;;;;;;;
2024/04/01 16:54:09;;;;;;;;;;;;;;;;;;;;;
2024/04/01 16:56:57;;;;;;;49.83;7.60;;;;;;;27.87;29.00;96681.22;5098007;28;20032;-72
2024/04/01 16:59:50;;;;;;;;;;;;;;;;;;;;;
2024/04/01 17:05:53;;;;;;;;;;;;;;;;;;;;;